createdAt,value
2018-04-11T00:00:59.443Z,8.43
2018-04-11T00:03:27.066Z,6.80
2018-04-11T00:05:54.698Z,7.30
2018-04-11T00:08:23.995Z,7.00
2018-04-11T00:10:51.619Z,7.20
2018-04-11T00:13:19.238Z,7.40
2018-04-11T00:15:46.843Z,7.07
2018-04-11T00:18:14.449Z,6.50
2018-04-11T00:20:42.033Z,5.67
2018-04-11T00:23:09.572Z,6.30
2018-04-11T00:25:37.203Z,5.23
2018-04-11T00:28:05.542Z,5.67
2018-04-11T00:30:33.128Z,5.40
2018-04-11T00:33:00.746Z,5.20
2018-04-11T00:35:28.360Z,7.20
2018-04-11T00:37:57.563Z,7.27
2018-04-11T00:40:25.933Z,6.63
2018-04-11T00:42:54.284Z,6.03
2018-04-11T00:45:21.883Z,5.80
2018-04-11T00:47:50.225Z,8.23
2018-04-11T00:50:17.825Z,7.07
2018-04-11T00:52:57.485Z,6.20
2018-04-11T00:55:36.524Z,7.10
2018-04-11T00:58:06.317Z,7.73
2018-04-11T01:00:33.891Z,7.20
2018-04-11T01:03:01.483Z,8.13
2018-04-11T01:05:29.126Z,9.83
2018-04-11T01:07:57.429Z,9.77
2018-04-11T01:10:24.984Z,8.50
2018-04-11T01:12:52.645Z,10.50
2018-04-11T01:15:20.247Z,9.00
2018-04-11T01:17:47.891Z,9.43
2018-04-11T01:20:15.488Z,11.53
2018-04-11T01:22:43.096Z,10.80
2018-04-11T01:25:11.489Z,10.70
2018-04-11T01:27:39.847Z,10.50
2018-04-11T01:30:07.441Z,9.17
2018-04-11T01:32:35.037Z,10.10
2018-04-11T01:35:02.663Z,11.13
2018-04-11T01:37:30.255Z,9.70
2018-04-11T01:39:57.865Z,9.30
2018-04-11T01:42:26.235Z,9.63
2018-04-11T01:44:54.629Z,11.17
2018-04-11T01:47:22.249Z,9.37
2018-04-11T01:49:49.864Z,10.00
2018-04-11T01:52:17.496Z,10.43
2018-04-11T01:54:45.871Z,11.50
2018-04-11T01:57:14.220Z,9.57
2018-04-11T01:59:41.789Z,9.70
2018-04-11T02:02:09.338Z,9.67
2018-04-11T02:04:36.931Z,9.70
2018-04-11T02:07:04.536Z,10.37
2018-04-11T02:09:32.169Z,9.40
2018-04-11T02:11:59.768Z,10.30
2018-04-11T02:14:27.436Z,11.27
2018-04-11T02:16:55.096Z,11.87
2018-04-11T02:19:22.687Z,10.70
2018-04-11T02:21:50.304Z,11.93
2018-04-11T02:24:17.885Z,11.13
2018-04-11T02:26:45.519Z,11.60
2018-04-11T02:29:13.142Z,10.47
2018-04-11T02:31:40.775Z,11.17
2018-04-11T02:34:08.337Z,13.33
2018-04-11T02:36:35.973Z,11.77
2018-04-11T02:39:03.527Z,10.90
2018-04-11T02:41:31.117Z,12.70
2018-04-11T02:43:58.711Z,12.57
2018-04-11T02:46:27.099Z,12.27
2018-04-11T02:48:55.477Z,12.07
2018-04-11T02:51:23.861Z,11.83
2018-04-11T02:53:52.238Z,12.43
2018-04-11T02:56:20.585Z,11.67
2018-04-11T02:58:49.703Z,11.95
2018-04-11T03:01:17.338Z,12.77
2018-04-11T03:03:44.939Z,11.77
2018-04-11T03:06:13.288Z,12.93
2018-04-11T03:08:40.922Z,12.17
2018-04-11T03:11:08.546Z,10.87
2018-04-11T03:13:36.983Z,12.30
2018-04-11T03:16:04.611Z,12.37
2018-04-11T03:18:32.227Z,12.40
2018-04-11T03:21:00.619Z,11.27
2018-04-11T03:23:29.000Z,11.03
2018-04-11T03:25:57.379Z,13.97
2018-04-11T03:28:25.753Z,12.80
2018-04-11T03:30:54.146Z,12.37
2018-04-11T03:33:21.757Z,14.50
2018-04-11T03:35:49.371Z,15.30
2018-04-11T03:38:17.013Z,15.07
2018-04-11T03:40:45.439Z,14.47
2018-04-11T03:43:13.004Z,12.83
2018-04-11T03:45:40.597Z,13.57
2018-04-11T03:48:08.170Z,14.20
2018-04-11T03:50:35.746Z,12.93
2018-04-11T03:53:04.144Z,13.77
2018-04-11T03:55:31.798Z,13.70
2018-04-11T03:57:59.408Z,14.17
2018-04-11T04:00:27.030Z,13.17
2018-04-11T04:02:54.661Z,15.30
2018-04-11T04:05:23.007Z,14.07
2018-04-11T04:07:50.626Z,13.77
2018-04-11T04:10:24.163Z,13.60
2018-04-11T04:12:51.767Z,12.67
2018-04-11T04:15:32.033Z,12.73
2018-04-11T04:18:11.350Z,12.10
2018-04-11T04:20:38.996Z,13.17
2018-04-11T04:23:06.595Z,10.20
2018-04-11T04:25:34.213Z,10.60
2018-04-11T04:28:01.833Z,11.03
2018-04-11T04:30:29.441Z,11.73
2018-04-11T04:33:04.763Z,12.47
2018-04-11T04:35:32.395Z,11.93
2018-04-11T04:37:59.971Z,14.37
2018-04-11T04:40:27.589Z,13.77
2018-04-11T04:42:55.142Z,11.13
2018-04-11T04:45:23.536Z,14.47
2018-04-11T04:47:51.146Z,12.90
2018-04-11T04:50:18.762Z,15.00
2018-04-11T04:52:46.373Z,13.43
2018-04-11T04:55:13.987Z,11.90
2018-04-11T04:57:45.120Z,12.63
2018-04-11T05:00:12.738Z,11.10
2018-04-11T05:02:40.356Z,11.53
2018-04-11T05:05:07.999Z,11.70
2018-04-11T05:07:35.617Z,12.40
2018-04-11T05:10:03.248Z,12.43
2018-04-11T05:12:30.866Z,11.90
2018-04-11T05:14:59.227Z,10.87
2018-04-11T05:17:26.850Z,12.53
2018-04-11T05:19:54.462Z,11.77
2018-04-11T05:22:22.866Z,13.50
2018-04-11T05:24:50.566Z,10.83
2018-04-11T05:27:18.149Z,11.27
2018-04-11T05:29:46.568Z,11.57
2018-04-11T05:32:14.572Z,10.90
2018-04-11T05:34:43.488Z,14.57
2018-04-11T05:37:11.910Z,13.83
2018-04-11T05:39:39.545Z,13.27
2018-04-11T05:42:07.930Z,14.27
2018-04-11T05:44:35.534Z,14.20
2018-04-11T05:47:03.148Z,14.70
2018-04-11T05:49:31.548Z,14.23
2018-04-11T05:51:59.153Z,15.00
2018-04-11T05:54:26.813Z,13.43
2018-04-11T05:56:54.455Z,14.43
2018-04-11T05:59:22.085Z,13.97
2018-04-11T06:01:49.685Z,13.40
2018-04-11T06:04:17.334Z,14.07
2018-04-11T06:06:44.930Z,13.47
2018-04-11T06:09:12.858Z,15.95
2018-04-11T06:11:40.494Z,14.40
2018-04-11T06:14:08.064Z,14.13
2018-04-11T06:16:35.709Z,14.07
2018-04-11T06:19:03.314Z,13.67
2018-04-11T06:21:34.701Z,13.00
2018-04-11T06:24:02.309Z,16.30
2018-04-11T06:26:29.921Z,16.50
2018-04-11T06:28:58.263Z,15.17
2018-04-11T06:31:25.914Z,15.83
2018-04-11T06:33:53.527Z,10.20
2018-04-11T06:36:21.161Z,14.07
2018-04-11T06:38:53.225Z,13.37
2018-04-11T06:41:20.795Z,12.67
2018-04-11T06:43:48.438Z,13.90
2018-04-11T06:46:16.075Z,13.70
2018-04-11T06:48:43.691Z,12.87
2018-04-11T06:51:11.305Z,11.40
2018-04-11T06:53:38.896Z,12.10
2018-04-11T06:56:06.495Z,13.20
2018-04-11T06:58:34.097Z,11.50
2018-04-11T07:01:01.781Z,11.97
2018-04-11T07:03:29.369Z,11.83
2018-04-11T07:05:57.004Z,13.30
2018-04-11T07:08:24.635Z,13.23
2018-04-11T07:10:52.249Z,13.40
2018-04-11T07:13:19.903Z,10.40
2018-04-11T07:15:47.596Z,12.17
2018-04-11T07:18:16.231Z,12.60
2018-04-11T07:20:43.825Z,12.83
2018-04-11T07:23:11.441Z,13.10
2018-04-11T07:25:39.043Z,12.60
2018-04-11T07:28:06.681Z,11.53
2018-04-11T07:30:34.291Z,11.10
2018-04-11T07:33:02.669Z,10.87
2018-04-11T07:35:30.977Z,12.67
2018-04-11T07:37:58.581Z,10.73
2018-04-11T07:40:26.207Z,12.27
2018-04-11T07:42:53.760Z,11.30
2018-04-11T07:45:21.415Z,9.80
2018-04-11T07:47:49.005Z,10.70
2018-04-11T07:50:16.616Z,10.63
2018-04-11T07:52:45.025Z,10.53
2018-04-11T07:55:12.618Z,10.20
2018-04-11T07:57:40.239Z,10.27
2018-04-11T08:00:07.835Z,9.60
2018-04-11T08:02:35.455Z,9.67
2018-04-11T08:05:03.075Z,9.50
2018-04-11T08:07:30.693Z,8.33
2018-04-11T08:09:58.330Z,7.90
2018-04-11T08:12:26.680Z,7.97
2018-04-11T08:14:54.311Z,8.10
2018-04-11T08:17:21.928Z,8.47
2018-04-11T08:19:49.531Z,8.73
2018-04-11T08:22:17.161Z,9.13
2018-04-11T08:24:44.777Z,9.10
2018-04-11T08:27:12.383Z,7.27
2018-04-11T08:29:41.694Z,9.45
2018-04-11T08:32:09.284Z,7.75
2018-04-11T08:34:37.027Z,8.27
2018-04-11T08:37:04.627Z,7.30
2018-04-11T08:39:32.225Z,8.07
2018-04-11T08:41:59.855Z,6.90
2018-04-11T08:44:27.463Z,6.80
2018-04-11T08:46:55.051Z,6.20
2018-04-11T08:49:22.687Z,6.40
2018-04-11T08:51:50.295Z,6.03
2018-04-11T08:54:17.911Z,5.73
2018-04-11T08:56:45.529Z,5.97
2018-04-11T08:59:13.859Z,5.20
2018-04-11T09:01:42.258Z,5.47
2018-04-11T09:04:09.885Z,5.70
2018-04-11T09:06:37.474Z,5.20
2018-04-11T09:09:05.864Z,4.00
2018-04-11T09:11:33.481Z,3.70
2018-04-11T09:14:01.123Z,4.10
2018-04-11T09:16:28.703Z,4.10
2018-04-11T09:18:56.295Z,4.43
2018-04-11T09:21:23.903Z,3.87
2018-04-11T09:23:51.494Z,4.93
2018-04-11T09:26:19.087Z,3.90
2018-04-11T09:28:46.667Z,4.47
2018-04-11T09:31:14.249Z,3.90
2018-04-11T09:33:41.859Z,3.70
2018-04-11T09:36:09.460Z,3.20
2018-04-11T09:38:37.085Z,3.50
2018-04-11T09:41:04.676Z,3.87
2018-04-11T09:43:32.322Z,3.93
2018-04-11T09:45:59.942Z,3.50
2018-04-11T09:48:27.662Z,3.93
2018-04-11T09:50:55.279Z,4.07
2018-04-11T09:53:23.662Z,3.10
2018-04-11T09:55:51.303Z,3.57
2018-04-11T09:58:18.866Z,4.20
2018-04-11T10:00:52.122Z,3.17
2018-04-11T10:03:22.202Z,3.50
2018-04-11T10:05:49.797Z,3.90
2018-04-11T10:08:17.397Z,3.87
2018-04-11T10:10:45.010Z,3.27
2018-04-11T10:13:12.562Z,3.83
2018-04-11T10:15:40.208Z,3.20
2018-04-11T10:18:08.626Z,2.97
2018-04-11T10:20:36.201Z,3.70
2018-04-11T10:23:03.812Z,4.03
2018-04-11T10:25:31.376Z,3.37
2018-04-11T10:27:58.983Z,3.80
2018-04-11T10:30:26.597Z,4.13
2018-04-11T10:32:54.207Z,3.30
2018-04-11T10:35:21.814Z,3.30
2018-04-11T10:37:49.416Z,3.10
2018-04-11T10:40:16.970Z,3.70
2018-04-11T10:42:44.538Z,3.70
2018-04-11T10:45:12.119Z,4.07
2018-04-11T10:47:39.752Z,3.90
2018-04-11T10:50:07.374Z,4.30
2018-04-11T10:52:35.015Z,3.70
2018-04-11T10:55:03.369Z,3.77
2018-04-11T10:57:30.976Z,3.37
2018-04-11T10:59:58.594Z,3.03
2018-04-11T11:02:27.706Z,2.57
2018-04-11T11:04:55.346Z,2.30
2018-04-11T11:07:23.732Z,3.60
2018-04-11T11:09:51.332Z,2.97
2018-04-11T11:12:18.916Z,2.53
2018-04-11T11:14:46.510Z,2.80
2018-04-11T11:17:14.892Z,2.50
2018-04-11T11:19:54.404Z,3.00
2018-04-11T11:22:21.988Z,3.67
2018-04-11T11:24:50.383Z,3.17
2018-04-11T11:27:17.982Z,2.60
2018-04-11T11:29:45.596Z,3.40
2018-04-11T11:32:13.217Z,3.30
2018-04-11T11:34:40.965Z,2.90
2018-04-11T11:37:08.573Z,2.80
2018-04-11T11:39:36.937Z,2.57
2018-04-11T11:42:05.353Z,2.70
2018-04-11T11:44:32.905Z,2.40
2018-04-11T11:47:00.509Z,2.93
2018-04-11T11:49:28.075Z,2.40
2018-04-11T11:51:55.697Z,2.70
2018-04-11T11:54:23.297Z,2.00
2018-04-11T11:56:50.900Z,3.47
2018-04-11T11:59:18.491Z,4.03
2018-04-11T12:01:46.085Z,3.77
2018-04-11T12:04:13.671Z,4.93
2018-04-11T12:06:42.081Z,3.90
2018-04-11T12:09:09.675Z,3.90
2018-04-11T12:11:37.281Z,4.10
2018-04-11T12:14:04.887Z,3.57
2018-04-11T12:16:33.237Z,3.30
2018-04-11T12:19:00.853Z,3.53
2018-04-11T12:21:28.456Z,3.50
2018-04-11T12:23:56.075Z,2.63
2018-04-11T12:26:23.677Z,2.87
2018-04-11T12:28:51.286Z,2.70
2018-04-11T12:31:18.889Z,4.00
2018-04-11T12:33:46.491Z,4.20
2018-04-11T12:36:14.093Z,4.10
2018-04-11T12:38:41.696Z,3.53
2018-04-11T12:41:10.061Z,3.80
2018-04-11T12:43:37.683Z,3.43
2018-04-11T12:46:05.274Z,2.60
2018-04-11T12:48:32.881Z,2.50
2018-04-11T12:51:00.484Z,3.13
2018-04-11T12:53:39.701Z,2.90
2018-04-11T12:56:07.299Z,2.80
2018-04-11T12:58:34.920Z,2.58
2018-04-11T13:01:02.552Z,2.35
2018-04-11T13:03:33.658Z,2.20
2018-04-11T13:06:01.268Z,2.20
2018-04-11T13:08:28.871Z,2.40
2018-04-11T13:11:00.507Z,2.50
2018-04-11T13:13:28.161Z,2.37
2018-04-11T13:15:55.789Z,2.23
2018-04-11T13:18:24.168Z,2.13
2018-04-11T13:20:52.555Z,2.07
2018-04-11T13:23:20.129Z,2.10
2018-04-11T13:25:47.707Z,2.00
2018-04-11T13:28:15.649Z,1.80
2018-04-11T13:30:43.257Z,1.87
2018-04-11T13:33:10.871Z,2.10
2018-04-11T13:35:38.495Z,2.37
2018-04-11T13:38:06.141Z,1.80
2018-04-11T13:40:33.755Z,2.27
2018-04-11T13:43:01.365Z,2.30
2018-04-11T13:45:28.961Z,2.20
2018-04-11T13:47:58.056Z,2.00
2018-04-11T13:50:26.425Z,2.00
2018-04-11T13:52:54.782Z,1.70
2018-04-11T13:55:23.900Z,2.13
2018-04-11T13:57:52.281Z,2.00
2018-04-11T14:00:21.268Z,1.83
2018-04-11T14:02:49.654Z,2.20
2018-04-11T14:05:17.242Z,2.33
2018-04-11T14:07:44.872Z,1.60
2018-04-11T14:10:13.256Z,2.10
2018-04-11T14:12:41.590Z,1.73
2018-04-11T14:15:09.194Z,2.00
2018-04-11T14:17:37.545Z,1.90
2018-04-11T14:20:05.161Z,2.10
2018-04-11T14:22:32.750Z,1.83
2018-04-11T14:25:03.054Z,1.87
2018-04-11T14:27:30.670Z,1.80
2018-04-11T14:29:58.270Z,2.00
2018-04-11T14:32:25.850Z,1.57
2018-04-11T14:34:53.466Z,1.70
2018-04-11T14:37:41.006Z,1.60
2018-04-11T14:40:09.359Z,1.80
2018-04-11T14:42:36.961Z,1.90
2018-04-11T14:45:04.531Z,1.63
2018-04-11T14:47:32.152Z,1.80
2018-04-11T14:50:00.495Z,1.60
2018-04-11T14:52:28.107Z,1.70
2018-04-11T14:54:55.719Z,1.53
2018-04-11T14:57:23.338Z,1.43
2018-04-11T14:59:50.892Z,1.47
2018-04-11T15:02:18.486Z,1.40
2018-04-11T15:04:46.044Z,1.53
2018-04-11T15:07:13.646Z,1.87
2018-04-11T15:09:41.245Z,1.50
2018-04-11T15:12:08.844Z,1.60
2018-04-11T15:14:36.430Z,1.97
2018-04-11T15:17:04.053Z,1.73
2018-04-11T15:19:39.268Z,1.83
2018-04-11T15:22:06.884Z,1.17
2018-04-11T15:24:34.504Z,1.60
2018-04-11T15:27:02.168Z,2.00
2018-04-11T15:29:29.784Z,1.83
2018-04-11T15:31:58.174Z,1.70
2018-04-11T15:34:29.604Z,1.73
2018-04-11T15:36:57.960Z,1.97
2018-04-11T15:39:25.593Z,1.60
2018-04-11T15:41:53.516Z,1.67
2018-04-11T15:44:21.904Z,1.47
2018-04-11T15:46:49.514Z,1.40
2018-04-11T15:49:17.129Z,1.57
2018-04-11T15:51:44.715Z,1.60
2018-04-11T15:54:12.308Z,1.40
2018-04-11T15:56:39.916Z,1.30
2018-04-11T15:59:07.508Z,1.10
2018-04-11T16:01:35.102Z,1.50
2018-04-11T16:04:02.711Z,1.50
2018-04-11T16:06:30.292Z,1.40
2018-04-11T16:08:57.940Z,1.03
2018-04-11T16:11:25.598Z,0.97
2018-04-11T16:13:53.180Z,1.60
2018-04-11T16:16:20.810Z,1.50
2018-04-11T16:18:56.995Z,1.27
2018-04-11T16:21:25.066Z,1.43
2018-04-11T16:23:52.666Z,1.30
2018-04-11T16:26:20.342Z,1.40
2018-04-11T16:28:47.974Z,1.40
2018-04-11T16:31:15.626Z,1.60
2018-04-11T16:33:43.258Z,1.43
2018-04-11T16:36:17.231Z,1.30
2018-04-11T16:38:44.832Z,1.60
2018-04-11T16:41:12.475Z,1.70
2018-04-11T16:43:40.092Z,1.40
2018-04-11T16:46:07.720Z,1.43
2018-04-11T16:48:35.326Z,1.20
2018-04-11T16:51:03.030Z,1.10
2018-04-11T16:53:30.618Z,1.60
2018-04-11T16:55:59.106Z,1.77
2018-04-11T16:58:27.504Z,1.40
2018-04-11T17:00:55.068Z,1.10
2018-04-11T17:03:22.686Z,1.30
2018-04-11T17:05:50.269Z,1.60
2018-04-11T17:08:17.922Z,1.37
2018-04-11T17:10:46.354Z,1.50
2018-04-11T17:13:13.981Z,1.80
2018-04-11T17:15:41.581Z,1.30
2018-04-11T17:18:09.200Z,1.40
2018-04-11T17:20:48.563Z,1.57
2018-04-11T17:23:28.002Z,1.70
2018-04-11T17:26:07.446Z,1.20
2018-04-11T17:28:46.950Z,1.33
2018-04-11T17:31:18.130Z,1.20
2018-04-11T17:33:45.742Z,1.50
2018-04-11T17:36:14.129Z,1.50
2018-04-11T17:38:42.554Z,1.17
2018-04-11T17:41:10.125Z,1.37
2018-04-11T17:43:37.748Z,1.23
2018-04-11T17:46:05.354Z,1.20
2018-04-11T17:48:32.938Z,1.53
2018-04-11T17:51:02.234Z,1.20
2018-04-11T17:53:30.567Z,1.60
2018-04-11T17:55:58.164Z,1.60
2018-04-11T17:58:25.768Z,1.50
2018-04-11T18:00:53.336Z,1.60
2018-04-11T18:03:20.952Z,1.90
2018-04-11T18:05:49.328Z,1.60
2018-04-11T18:08:24.682Z,1.87
2018-04-11T18:11:01.191Z,1.83
2018-04-11T18:13:28.850Z,1.87
2018-04-11T18:15:57.235Z,1.60
2018-04-11T18:18:29.351Z,1.80
2018-04-11T18:21:01.114Z,1.90
2018-04-11T18:23:36.639Z,1.83
2018-04-11T18:26:04.257Z,2.10
2018-04-11T18:28:33.852Z,2.17
2018-04-11T18:31:01.449Z,2.10
2018-04-11T18:33:31.673Z,2.27
2018-04-11T18:36:02.351Z,2.30
2018-04-11T18:38:30.760Z,2.33
2018-04-11T18:40:58.357Z,2.10
2018-04-11T18:43:25.975Z,2.30
2018-04-11T18:45:53.599Z,2.17
2018-04-11T18:48:21.155Z,2.27
2018-04-11T18:50:48.801Z,2.73
2018-04-11T18:53:16.425Z,2.73
2018-04-11T18:55:44.019Z,2.53
2018-04-11T19:01:04.868Z,2.80
2018-04-11T19:03:32.441Z,2.80
2018-04-11T19:06:09.011Z,3.07
2018-04-11T19:11:54.994Z,3.07
2018-04-11T19:14:23.176Z,3.00
2018-04-11T19:16:50.709Z,2.70
2018-04-11T19:19:19.165Z,2.50
2018-04-11T19:21:46.688Z,2.90
2018-04-11T19:24:14.228Z,3.30
2018-04-11T19:26:47.293Z,2.80
2018-04-11T19:29:14.870Z,3.40
2018-04-11T19:31:42.390Z,3.50
2018-04-11T19:34:10.664Z,4.30
2018-04-11T19:36:38.202Z,3.87
2018-04-11T19:39:06.498Z,3.97
2018-04-11T19:41:34.061Z,3.50
2018-04-11T19:44:01.590Z,3.67
2018-04-11T19:46:29.126Z,3.63
2018-04-11T19:48:56.640Z,4.27
2018-04-11T19:51:24.167Z,4.10
2018-04-11T19:53:51.754Z,4.40
2018-04-11T19:56:19.273Z,4.17
2018-04-11T19:58:47.594Z,4.57
2018-04-11T20:01:25.265Z,4.03
2018-04-11T20:03:52.806Z,3.80
2018-04-11T20:06:20.330Z,4.23
2018-04-11T20:08:47.888Z,4.30
2018-04-11T20:11:15.451Z,3.90
2018-04-11T20:13:42.941Z,3.90
2018-04-11T20:16:11.229Z,4.53
2018-04-11T20:18:38.792Z,3.90
2018-04-11T20:21:06.283Z,4.50
2018-04-11T20:23:41.237Z,4.47
2018-04-11T20:26:08.733Z,4.30
2018-04-11T20:28:36.238Z,4.53
2018-04-11T20:31:18.329Z,5.33
2018-04-11T20:33:45.863Z,4.53
2018-04-11T20:36:36.481Z,5.53
2018-04-11T20:39:04.044Z,4.63
2018-04-11T20:41:32.618Z,5.47
2018-04-11T20:44:00.201Z,5.33
2018-04-11T20:46:27.892Z,5.47
2018-04-11T20:48:56.313Z,5.53
2018-04-11T20:51:23.906Z,4.90
2018-04-11T20:53:52.295Z,5.60
2018-04-11T20:56:19.905Z,5.63
2018-04-11T20:58:47.494Z,6.07
2018-04-11T21:01:15.089Z,6.00
2018-04-11T21:03:43.470Z,5.83
2018-04-11T21:06:11.844Z,5.90
2018-04-11T21:08:41.124Z,6.43
2018-04-11T21:11:08.774Z,6.57
2018-04-11T21:13:36.384Z,6.53
2018-04-11T21:16:04.750Z,6.53
2018-04-11T21:18:33.124Z,7.20
2018-04-11T21:21:01.490Z,6.43
2018-04-11T21:23:29.088Z,6.83
2018-04-11T21:25:56.691Z,7.57
2018-04-11T21:28:24.303Z,7.73
2018-04-11T21:30:51.946Z,7.50
2018-04-11T21:33:20.318Z,7.47
2018-04-11T21:35:47.895Z,7.77
2018-04-11T21:38:16.275Z,6.27
2018-04-11T21:40:44.654Z,6.87
2018-04-11T21:43:13.027Z,7.37
2018-04-11T21:45:41.400Z,8.27
2018-04-11T21:48:09.776Z,8.93
2018-04-11T21:51:01.648Z,8.80
2018-04-11T21:53:29.990Z,8.07
2018-04-11T21:55:57.605Z,8.60
2018-04-11T21:58:25.231Z,8.07
2018-04-11T22:00:52.818Z,8.37
2018-04-11T22:03:20.414Z,8.50
2018-04-11T22:05:48.022Z,9.97
2018-04-11T22:08:15.618Z,8.67
2018-04-11T22:10:43.244Z,9.37
2018-04-11T22:13:10.900Z,8.90
2018-04-11T22:15:38.498Z,9.13
2018-04-11T22:18:06.121Z,9.17
2018-04-11T22:20:37.635Z,9.07
2018-04-11T22:23:05.232Z,8.07
2018-04-11T22:25:32.798Z,8.67
2018-04-11T22:28:00.415Z,10.00
2018-04-11T22:30:28.072Z,9.67
2018-04-11T22:32:55.802Z,8.40
2018-04-11T22:35:23.434Z,8.90
2018-04-11T22:37:51.045Z,9.07
2018-04-11T22:40:18.630Z,8.57
2018-04-11T22:42:47.018Z,9.07
2018-04-11T22:45:15.403Z,10.13
2018-04-11T22:47:43.748Z,7.70
2018-04-11T22:50:11.380Z,10.30
2018-04-11T22:52:38.976Z,10.37
2018-04-11T22:55:06.559Z,10.80
2018-04-11T22:57:34.975Z,8.63
2018-04-11T23:00:02.594Z,10.37
2018-04-11T23:02:30.969Z,10.00
2018-04-11T23:04:59.335Z,10.83
2018-04-11T23:07:26.941Z,10.47
2018-04-11T23:09:54.561Z,10.30
2018-04-11T23:12:25.222Z,9.97
2018-04-11T23:14:52.835Z,9.97
2018-04-11T23:17:20.437Z,10.30
2018-04-11T23:19:48.772Z,9.67
2018-04-11T23:22:16.379Z,9.83
2018-04-11T23:24:44.031Z,9.70
2018-04-11T23:27:12.385Z,9.17
2018-04-11T23:29:39.985Z,9.30
2018-04-11T23:32:08.377Z,10.20
2018-04-11T23:34:35.989Z,9.73
2018-04-11T23:37:04.379Z,8.63
2018-04-11T23:39:32.026Z,8.90
2018-04-11T23:42:00.410Z,8.60
2018-04-11T23:44:28.754Z,8.27
2018-04-11T23:46:56.353Z,9.33
2018-04-11T23:49:23.945Z,9.20
2018-04-11T23:51:51.551Z,9.27
2018-04-11T23:54:19.184Z,9.20
2018-04-11T23:56:46.836Z,8.07
2018-04-11T23:59:14.500Z,9.10
